Terminal Aerodrome Forecast
Issued by NWS Louisville, KY

Home | Current Version | Previous Version | Text Only | Print | Product List | Glossary On
Versions: 1 2 3 4 5 6 7 8 9 10 11 12 13 14
118
FTUS43 KLMK 221121
TAFSDF
TAF
KSDF 221121Z 2212/2318 VRB03KT P6SM SCT250
      TEMPO 2212/2213 5SM BR
     FM221400 25004KT P6SM VCSH SCT050 BKN250
     FM221600 26006KT P6SM VCTS SCT050CB
     FM222200 VRB04KT P6SM BKN250
     FM231000 VRB03KT 6SM BR SCT250=

USA.gov is the U.S. government's official web portal to all federal, state and local government web resources and services.